sensor_id;sensor_type;location;lat;lon;timestamp;temperature;humidity
32749;DHT22;19119;52.474;13.710;2023-05-07T00:01:42;8.90;99.90
32749;DHT22;19119;52.474;13.710;2023-05-07T00:04:08;8.90;99.90
32749;DHT22;19119;52.474;13.710;2023-05-07T00:06:33;8.90;99.90
32749;DHT22;19119;52.474;13.710;2023-05-07T00:08:59;8.90;99.90
32749;DHT22;19119;52.474;13.710;2023-05-07T00:11:26;8.90;99.90
32749;DHT22;19119;52.474;13.710;2023-05-07T00:13:52;8.80;99.90
32749;DHT22;19119;52.474;13.710;2023-05-07T00:16:17;8.80;99.90
32749;DHT22;19119;52.474;13.710;2023-05-07T00:18:43;8.80;99.90
32749;DHT22;19119;52.474;13.710;2023-05-07T00:21:08;8.80;99.90
32749;DHT22;19119;52.474;13.710;2023-05-07T00:23:34;8.80;99.90
32749;DHT22;19119;52.474;13.710;2023-05-07T00:25:59;8.80;99.90
32749;DHT22;19119;52.474;13.710;2023-05-07T00:28:25;8.70;99.90
32749;DHT22;19119;52.474;13.710;2023-05-07T00:30:51;8.80;99.90
32749;DHT22;19119;52.474;13.710;2023-05-07T00:33:16;8.80;99.90
32749;DHT22;19119;52.474;13.710;2023-05-07T00:35:42;8.80;99.90
32749;DHT22;19119;52.474;13.710;2023-05-07T00:38:08;8.80;99.90
32749;DHT22;19119;52.474;13.710;2023-05-07T00:40:33;8.80;99.90
32749;DHT22;19119;52.474;13.710;2023-05-07T00:42:59;8.80;99.90
32749;DHT22;19119;52.474;13.710;2023-05-07T00:45:28;8.80;99.90
32749;DHT22;19119;52.474;13.710;2023-05-07T00:47:55;8.80;99.90
32749;DHT22;19119;52.474;13.710;2023-05-07T00:50:21;8.70;99.90
32749;DHT22;19119;52.474;13.710;2023-05-07T00:52:47;8.80;99.90
32749;DHT22;19119;52.474;13.710;2023-05-07T00:55:13;8.80;99.90
32749;DHT22;19119;52.474;13.710;2023-05-07T00:57:40;8.80;99.90
32749;DHT22;19119;52.474;13.710;2023-05-07T01:00:07;8.60;99.90
32749;DHT22;19119;52.474;13.710;2023-05-07T01:02:35;8.80;99.90
32749;DHT22;19119;52.474;13.710;2023-05-07T01:05:02;8.90;99.90
32749;DHT22;19119;52.474;13.710;2023-05-07T01:07:29;8.90;99.90
32749;DHT22;19119;52.474;13.710;2023-05-07T01:09:56;8.90;99.90
32749;DHT22;19119;52.474;13.710;2023-05-07T01:12:22;8.80;99.90
32749;DHT22;19119;52.474;13.710;2023-05-07T01:14:48;8.80;99.90
32749;DHT22;19119;52.474;13.710;2023-05-07T01:17:23;8.90;99.90
32749;DHT22;19119;52.474;13.710;2023-05-07T01:19:48;8.90;99.90
32749;DHT22;19119;52.474;13.710;2023-05-07T01:22:15;8.90;99.90
32749;DHT22;19119;52.474;13.710;2023-05-07T01:24:42;8.80;99.90
32749;DHT22;19119;52.474;13.710;2023-05-07T01:27:07;8.80;99.90
32749;DHT22;19119;52.474;13.710;2023-05-07T01:29:33;8.70;99.90
32749;DHT22;19119;52.474;13.710;2023-05-07T01:32:00;8.80;99.90
32749;DHT22;19119;52.474;13.710;2023-05-07T01:34:28;8.80;99.90
32749;DHT22;19119;52.474;13.710;2023-05-07T01:36:55;8.80;99.90
32749;DHT22;19119;52.474;13.710;2023-05-07T01:39:25;8.80;99.90
32749;DHT22;19119;52.474;13.710;2023-05-07T01:41:51;8.70;99.90
32749;DHT22;19119;52.474;13.710;2023-05-07T01:44:18;8.70;99.90
32749;DHT22;19119;52.474;13.710;2023-05-07T01:46:45;8.70;99.90
32749;DHT22;19119;52.474;13.710;2023-05-07T01:49:10;8.70;99.90
32749;DHT22;19119;52.474;13.710;2023-05-07T01:51:36;8.70;99.90
32749;DHT22;19119;52.474;13.710;2023-05-07T01:54:02;8.80;99.90
32749;DHT22;19119;52.474;13.710;2023-05-07T01:56:27;8.70;99.90
32749;DHT22;19119;52.474;13.710;2023-05-07T01:58:53;8.70;99.90
32749;DHT22;19119;52.474;13.710;2023-05-07T02:01:18;8.80;99.90
32749;DHT22;19119;52.474;13.710;2023-05-07T02:03:44;8.80;99.90
32749;DHT22;19119;52.474;13.710;2023-05-07T02:06:10;8.90;99.90
32749;DHT22;19119;52.474;13.710;2023-05-07T02:08:35;9.00;99.90
32749;DHT22;19119;52.474;13.710;2023-05-07T02:11:01;9.00;99.90
32749;DHT22;19119;52.474;13.710;2023-05-07T02:13:30;9.00;99.90
32749;DHT22;19119;52.474;13.710;2023-05-07T02:15:55;9.00;99.90
32749;DHT22;19119;52.474;13.710;2023-05-07T02:18:21;9.00;99.90
32749;DHT22;19119;52.474;13.710;2023-05-07T02:20:47;9.00;99.90
32749;DHT22;19119;52.474;13.710;2023-05-07T02:23:12;8.90;99.90
32749;DHT22;19119;52.474;13.710;2023-05-07T02:25:38;8.80;99.90
32749;DHT22;19119;52.474;13.710;2023-05-07T02:28:03;8.80;99.90
32749;DHT22;19119;52.474;13.710;2023-05-07T02:30:29;8.80;99.90
32749;DHT22;19119;52.474;13.710;2023-05-07T02:32:54;8.80;99.90
32749;DHT22;19119;52.474;13.710;2023-05-07T02:35:20;8.80;99.90
32749;DHT22;19119;52.474;13.710;2023-05-07T02:37:45;8.90;99.90
32749;DHT22;19119;52.474;13.710;2023-05-07T02:40:11;8.80;99.90
32749;DHT22;19119;52.474;13.710;2023-05-07T02:42:37;8.80;99.90
32749;DHT22;19119;52.474;13.710;2023-05-07T02:45:03;8.80;99.90
32749;DHT22;19119;52.474;13.710;2023-05-07T02:47:29;8.80;99.90
32749;DHT22;19119;52.474;13.710;2023-05-07T02:49:55;8.80;99.90
32749;DHT22;19119;52.474;13.710;2023-05-07T02:52:21;8.80;99.90
32749;DHT22;19119;52.474;13.710;2023-05-07T02:54:47;8.90;99.90
32749;DHT22;19119;52.474;13.710;2023-05-07T02:57:12;8.90;99.90
32749;DHT22;19119;52.474;13.710;2023-05-07T02:59:38;8.80;99.90
32749;DHT22;19119;52.474;13.710;2023-05-07T03:02:03;8.80;99.90
32749;DHT22;19119;52.474;13.710;2023-05-07T03:04:29;8.70;99.90
32749;DHT22;19119;52.474;13.710;2023-05-07T03:06:54;8.70;99.90
32749;DHT22;19119;52.474;13.710;2023-05-07T03:09:20;8.70;99.90
32749;DHT22;19119;52.474;13.710;2023-05-07T03:11:46;8.70;99.90
32749;DHT22;19119;52.474;13.710;2023-05-07T03:14:12;8.70;99.90
32749;DHT22;19119;52.474;13.710;2023-05-07T03:16:38;8.60;99.90
32749;DHT22;19119;52.474;13.710;2023-05-07T03:19:03;8.70;99.90
32749;DHT22;19119;52.474;13.710;2023-05-07T03:21:29;8.60;99.90
32749;DHT22;19119;52.474;13.710;2023-05-07T03:23:55;8.60;99.90
32749;DHT22;19119;52.474;13.710;2023-05-07T03:26:21;8.50;99.90
32749;DHT22;19119;52.474;13.710;2023-05-07T03:28:47;8.50;99.90
32749;DHT22;19119;52.474;13.710;2023-05-07T03:31:13;8.50;99.90
32749;DHT22;19119;52.474;13.710;2023-05-07T03:33:52;8.40;99.90
32749;DHT22;19119;52.474;13.710;2023-05-07T03:36:18;8.50;99.90
32749;DHT22;19119;52.474;13.710;2023-05-07T03:38:44;8.50;99.90
32749;DHT22;19119;52.474;13.710;2023-05-07T03:41:09;8.50;99.90
32749;DHT22;19119;52.474;13.710;2023-05-07T03:43:35;8.50;99.90
32749;DHT22;19119;52.474;13.710;2023-05-07T03:46:00;8.50;99.90
32749;DHT22;19119;52.474;13.710;2023-05-07T03:48:26;8.40;99.90
32749;DHT22;19119;52.474;13.710;2023-05-07T03:50:51;8.50;99.90
32749;DHT22;19119;52.474;13.710;2023-05-07T03:53:17;8.50;99.90
32749;DHT22;19119;52.474;13.710;2023-05-07T03:55:42;8.50;99.90
32749;DHT22;19119;52.474;13.710;2023-05-07T03:58:08;8.40;99.90
32749;DHT22;19119;52.474;13.710;2023-05-07T04:00:33;8.40;99.90
32749;DHT22;19119;52.474;13.710;2023-05-07T04:03:03;8.50;99.90
32749;DHT22;19119;52.474;13.710;2023-05-07T04:05:30;8.50;99.90
32749;DHT22;19119;52.474;13.710;2023-05-07T04:07:55;8.50;99.90
32749;DHT22;19119;52.474;13.710;2023-05-07T04:10:21;8.50;99.90
32749;DHT22;19119;52.474;13.710;2023-05-07T04:12:46;8.50;99.90
32749;DHT22;19119;52.474;13.710;2023-05-07T04:15:12;8.50;99.90
32749;DHT22;19119;52.474;13.710;2023-05-07T04:17:38;8.50;99.90
32749;DHT22;19119;52.474;13.710;2023-05-07T04:20:04;8.60;99.90
32749;DHT22;19119;52.474;13.710;2023-05-07T04:22:29;8.60;99.90
32749;DHT22;19119;52.474;13.710;2023-05-07T04:24:55;8.70;99.90
32749;DHT22;19119;52.474;13.710;2023-05-07T04:27:21;8.60;99.90
32749;DHT22;19119;52.474;13.710;2023-05-07T04:29:47;8.70;99.90
32749;DHT22;19119;52.474;13.710;2023-05-07T04:32:13;8.70;99.90
32749;DHT22;19119;52.474;13.710;2023-05-07T04:34:38;8.80;99.90
32749;DHT22;19119;52.474;13.710;2023-05-07T04:37:04;8.70;99.90
32749;DHT22;19119;52.474;13.710;2023-05-07T04:39:29;8.80;99.90
32749;DHT22;19119;52.474;13.710;2023-05-07T04:41:55;8.90;99.90
32749;DHT22;19119;52.474;13.710;2023-05-07T04:44:21;8.90;99.90
32749;DHT22;19119;52.474;13.710;2023-05-07T04:46:46;9.00;99.90
32749;DHT22;19119;52.474;13.710;2023-05-07T04:49:12;8.90;99.90
32749;DHT22;19119;52.474;13.710;2023-05-07T04:51:37;8.90;99.90
32749;DHT22;19119;52.474;13.710;2023-05-07T04:54:03;8.90;99.90
32749;DHT22;19119;52.474;13.710;2023-05-07T04:56:29;8.90;99.90
32749;DHT22;19119;52.474;13.710;2023-05-07T04:58:57;8.90;99.90
32749;DHT22;19119;52.474;13.710;2023-05-07T05:01:23;8.90;99.90
32749;DHT22;19119;52.474;13.710;2023-05-07T05:03:49;8.80;99.90
32749;DHT22;19119;52.474;13.710;2023-05-07T05:06:14;8.90;99.90
32749;DHT22;19119;52.474;13.710;2023-05-07T05:08:40;9.00;99.90
32749;DHT22;19119;52.474;13.710;2023-05-07T05:11:05;9.00;99.90
32749;DHT22;19119;52.474;13.710;2023-05-07T05:13:31;9.00;99.90
32749;DHT22;19119;52.474;13.710;2023-05-07T05:15:56;8.90;99.90
32749;DHT22;19119;52.474;13.710;2023-05-07T05:18:22;8.90;99.90
32749;DHT22;19119;52.474;13.710;2023-05-07T05:20:48;8.90;99.90
32749;DHT22;19119;52.474;13.710;2023-05-07T05:23:13;9.00;99.90
32749;DHT22;19119;52.474;13.710;2023-05-07T05:25:39;9.10;99.90
32749;DHT22;19119;52.474;13.710;2023-05-07T05:28:05;9.30;99.90
32749;DHT22;19119;52.474;13.710;2023-05-07T05:30:31;9.40;99.90
32749;DHT22;19119;52.474;13.710;2023-05-07T05:32:56;9.50;99.90
32749;DHT22;19119;52.474;13.710;2023-05-07T05:35:22;10.00;99.90
32749;DHT22;19119;52.474;13.710;2023-05-07T05:37:47;10.30;99.90
32749;DHT22;19119;52.474;13.710;2023-05-07T05:40:13;10.30;99.90
32749;DHT22;19119;52.474;13.710;2023-05-07T05:42:39;10.20;99.90
32749;DHT22;19119;52.474;13.710;2023-05-07T05:45:05;10.30;99.90
32749;DHT22;19119;52.474;13.710;2023-05-07T05:47:31;10.30;99.90
32749;DHT22;19119;52.474;13.710;2023-05-07T05:49:56;10.10;99.90
32749;DHT22;19119;52.474;13.710;2023-05-07T05:52:22;10.00;99.90
32749;DHT22;19119;52.474;13.710;2023-05-07T05:54:49;9.90;99.90
32749;DHT22;19119;52.474;13.710;2023-05-07T05:57:15;10.00;99.90
32749;DHT22;19119;52.474;13.710;2023-05-07T05:59:40;10.10;99.90
32749;DHT22;19119;52.474;13.710;2023-05-07T06:02:06;10.00;99.90
32749;DHT22;19119;52.474;13.710;2023-05-07T06:04:32;10.00;99.90
32749;DHT22;19119;52.474;13.710;2023-05-07T06:06:58;9.80;99.90
32749;DHT22;19119;52.474;13.710;2023-05-07T06:09:23;10.00;99.90
32749;DHT22;19119;52.474;13.710;2023-05-07T06:11:49;10.20;99.90
32749;DHT22;19119;52.474;13.710;2023-05-07T06:14:15;10.20;99.90
32749;DHT22;19119;52.474;13.710;2023-05-07T06:16:40;10.00;99.90
32749;DHT22;19119;52.474;13.710;2023-05-07T06:19:07;9.80;99.90
32749;DHT22;19119;52.474;13.710;2023-05-07T06:21:32;9.80;99.90
32749;DHT22;19119;52.474;13.710;2023-05-07T06:23:58;10.10;99.90
32749;DHT22;19119;52.474;13.710;2023-05-07T06:26:23;10.00;99.90
32749;DHT22;19119;52.474;13.710;2023-05-07T06:28:49;10.10;99.90
32749;DHT22;19119;52.474;13.710;2023-05-07T06:31:16;10.30;99.90
32749;DHT22;19119;52.474;13.710;2023-05-07T06:33:43;10.50;99.90
32749;DHT22;19119;52.474;13.710;2023-05-07T06:36:09;10.60;99.90
32749;DHT22;19119;52.474;13.710;2023-05-07T06:38:34;10.50;99.90
32749;DHT22;19119;52.474;13.710;2023-05-07T06:41:00;10.80;99.90
32749;DHT22;19119;52.474;13.710;2023-05-07T06:43:25;10.70;99.90
32749;DHT22;19119;52.474;13.710;2023-05-07T06:45:51;10.60;99.90
32749;DHT22;19119;52.474;13.710;2023-05-07T06:48:16;10.80;99.90
32749;DHT22;19119;52.474;13.710;2023-05-07T06:50:42;11.10;99.90
32749;DHT22;19119;52.474;13.710;2023-05-07T06:53:07;11.40;99.90
32749;DHT22;19119;52.474;13.710;2023-05-07T06:55:33;11.30;99.90
32749;DHT22;19119;52.474;13.710;2023-05-07T06:57:58;11.20;99.90
32749;DHT22;19119;52.474;13.710;2023-05-07T07:00:26;11.20;99.90
32749;DHT22;19119;52.474;13.710;2023-05-07T07:02:53;11.60;99.90
32749;DHT22;19119;52.474;13.710;2023-05-07T07:05:18;11.70;99.90
32749;DHT22;19119;52.474;13.710;2023-05-07T07:07:44;11.40;99.90
32749;DHT22;19119;52.474;13.710;2023-05-07T07:10:10;11.30;99.90
32749;DHT22;19119;52.474;13.710;2023-05-07T07:12:35;11.20;99.90
32749;DHT22;19119;52.474;13.710;2023-05-07T07:15:01;11.10;99.90
32749;DHT22;19119;52.474;13.710;2023-05-07T07:17:27;11.20;99.90
32749;DHT22;19119;52.474;13.710;2023-05-07T07:19:53;11.50;99.90
32749;DHT22;19119;52.474;13.710;2023-05-07T07:22:19;11.90;99.90
32749;DHT22;19119;52.474;13.710;2023-05-07T07:24:45;11.80;99.90
32749;DHT22;19119;52.474;13.710;2023-05-07T07:27:10;12.00;99.90
32749;DHT22;19119;52.474;13.710;2023-05-07T07:29:36;12.00;99.90
32749;DHT22;19119;52.474;13.710;2023-05-07T07:32:01;12.10;99.90
32749;DHT22;19119;52.474;13.710;2023-05-07T07:34:27;12.30;99.90
32749;DHT22;19119;52.474;13.710;2023-05-07T07:36:52;12.60;99.90
32749;DHT22;19119;52.474;13.710;2023-05-07T07:39:18;12.70;99.90
32749;DHT22;19119;52.474;13.710;2023-05-07T07:41:43;13.00;99.90
32749;DHT22;19119;52.474;13.710;2023-05-07T07:44:09;13.20;99.90
32749;DHT22;19119;52.474;13.710;2023-05-07T07:46:38;13.30;99.90
32749;DHT22;19119;52.474;13.710;2023-05-07T07:49:03;13.50;99.90
32749;DHT22;19119;52.474;13.710;2023-05-07T07:51:29;13.40;99.90
32749;DHT22;19119;52.474;13.710;2023-05-07T07:53:55;13.30;99.90
32749;DHT22;19119;52.474;13.710;2023-05-07T07:56:23;13.50;99.90
32749;DHT22;19119;52.474;13.710;2023-05-07T07:58:48;13.60;99.90
32749;DHT22;19119;52.474;13.710;2023-05-07T08:01:14;13.60;99.90
32749;DHT22;19119;52.474;13.710;2023-05-07T08:03:40;13.40;99.90
32749;DHT22;19119;52.474;13.710;2023-05-07T08:06:05;13.60;99.90
32749;DHT22;19119;52.474;13.710;2023-05-07T08:08:31;13.70;99.90
32749;DHT22;19119;52.474;13.710;2023-05-07T08:10:57;13.90;99.90
32749;DHT22;19119;52.474;13.710;2023-05-07T08:13:22;13.80;99.90
32749;DHT22;19119;52.474;13.710;2023-05-07T08:15:48;13.60;99.90
32749;DHT22;19119;52.474;13.710;2023-05-07T08:18:13;13.90;99.90
32749;DHT22;19119;52.474;13.710;2023-05-07T08:20:39;13.80;99.90
32749;DHT22;19119;52.474;13.710;2023-05-07T08:23:05;13.80;99.90
32749;DHT22;19119;52.474;13.710;2023-05-07T08:25:33;14.20;99.90
32749;DHT22;19119;52.474;13.710;2023-05-07T08:27:59;14.40;99.90
32749;DHT22;19119;52.474;13.710;2023-05-07T08:30:25;14.50;99.90
32749;DHT22;19119;52.474;13.710;2023-05-07T08:32:50;14.50;99.90
32749;DHT22;19119;52.474;13.710;2023-05-07T08:35:16;14.20;99.90
32749;DHT22;19119;52.474;13.710;2023-05-07T08:37:41;14.20;99.90
32749;DHT22;19119;52.474;13.710;2023-05-07T08:40:07;13.70;99.90
32749;DHT22;19119;52.474;13.710;2023-05-07T08:42:36;14.00;99.90
32749;DHT22;19119;52.474;13.710;2023-05-07T08:45:08;14.20;99.90
32749;DHT22;19119;52.474;13.710;2023-05-07T08:47:46;14.40;99.90
32749;DHT22;19119;52.474;13.710;2023-05-07T08:50:12;14.50;99.90
32749;DHT22;19119;52.474;13.710;2023-05-07T08:52:39;14.00;99.90
32749;DHT22;19119;52.474;13.710;2023-05-07T08:55:07;13.70;99.90
32749;DHT22;19119;52.474;13.710;2023-05-07T08:57:32;13.80;99.90
32749;DHT22;19119;52.474;13.710;2023-05-07T08:59:58;13.70;99.90
32749;DHT22;19119;52.474;13.710;2023-05-07T09:02:24;13.70;99.90
32749;DHT22;19119;52.474;13.710;2023-05-07T09:04:49;14.20;99.90
32749;DHT22;19119;52.474;13.710;2023-05-07T09:07:16;14.00;99.90
32749;DHT22;19119;52.474;13.710;2023-05-07T09:09:42;14.40;99.90
32749;DHT22;19119;52.474;13.710;2023-05-07T09:12:09;14.30;99.90
32749;DHT22;19119;52.474;13.710;2023-05-07T09:14:35;14.50;99.90
32749;DHT22;19119;52.474;13.710;2023-05-07T09:17:01;14.50;99.90
32749;DHT22;19119;52.474;13.710;2023-05-07T09:19:27;14.40;99.90
32749;DHT22;19119;52.474;13.710;2023-05-07T09:22:00;13.90;99.90
32749;DHT22;19119;52.474;13.710;2023-05-07T09:24:27;14.20;99.90
32749;DHT22;19119;52.474;13.710;2023-05-07T09:26:55;14.90;99.90
32749;DHT22;19119;52.474;13.710;2023-05-07T09:29:22;15.30;99.90
32749;DHT22;19119;52.474;13.710;2023-05-07T09:31:48;15.40;99.90
32749;DHT22;19119;52.474;13.710;2023-05-07T09:34:13;15.20;99.90
32749;DHT22;19119;52.474;13.710;2023-05-07T09:36:39;15.80;99.90
32749;DHT22;19119;52.474;13.710;2023-05-07T09:39:04;15.40;99.90
32749;DHT22;19119;52.474;13.710;2023-05-07T09:41:30;15.60;99.90
32749;DHT22;19119;52.474;13.710;2023-05-07T09:43:58;15.50;99.90
32749;DHT22;19119;52.474;13.710;2023-05-07T09:46:31;15.60;99.90
32749;DHT22;19119;52.474;13.710;2023-05-07T09:48:58;15.50;99.90
32749;DHT22;19119;52.474;13.710;2023-05-07T09:51:28;16.10;99.90
32749;DHT22;19119;52.474;13.710;2023-05-07T09:53:56;15.90;99.90
32749;DHT22;19119;52.474;13.710;2023-05-07T09:56:22;15.40;99.90
32749;DHT22;19119;52.474;13.710;2023-05-07T09:58:49;14.80;99.90
32749;DHT22;19119;52.474;13.710;2023-05-07T10:01:17;14.80;99.90
32749;DHT22;19119;52.474;13.710;2023-05-07T10:03:44;15.00;99.90
32749;DHT22;19119;52.474;13.710;2023-05-07T10:06:12;14.90;99.90
32749;DHT22;19119;52.474;13.710;2023-05-07T10:08:38;14.80;99.90
32749;DHT22;19119;52.474;13.710;2023-05-07T10:11:05;14.90;99.90
32749;DHT22;19119;52.474;13.710;2023-05-07T10:13:34;15.10;99.90
32749;DHT22;19119;52.474;13.710;2023-05-07T10:16:06;15.50;99.90
32749;DHT22;19119;52.474;13.710;2023-05-07T10:18:32;15.50;99.90
32749;DHT22;19119;52.474;13.710;2023-05-07T10:21:11;16.30;99.90
32749;DHT22;19119;52.474;13.710;2023-05-07T10:23:40;16.40;99.90
32749;DHT22;19119;52.474;13.710;2023-05-07T10:26:08;16.00;99.90
32749;DHT22;19119;52.474;13.710;2023-05-07T10:28:38;15.80;99.90
32749;DHT22;19119;52.474;13.710;2023-05-07T10:33:46;15.90;99.90
32749;DHT22;19119;52.474;13.710;2023-05-07T10:36:14;15.80;99.90
32749;DHT22;19119;52.474;13.710;2023-05-07T10:38:39;15.90;99.90
32749;DHT22;19119;52.474;13.710;2023-05-07T10:41:06;16.10;99.90
32749;DHT22;19119;52.474;13.710;2023-05-07T10:43:39;16.30;99.90
32749;DHT22;19119;52.474;13.710;2023-05-07T10:46:18;17.10;99.90
32749;DHT22;19119;52.474;13.710;2023-05-07T10:51:34;17.20;99.90
32749;DHT22;19119;52.474;13.710;2023-05-07T10:54:18;17.90;99.90
32749;DHT22;19119;52.474;13.710;2023-05-07T10:56:44;17.60;99.90
32749;DHT22;19119;52.474;13.710;2023-05-07T11:02:04;16.50;99.90
32749;DHT22;19119;52.474;13.710;2023-05-07T11:04:33;16.10;99.90
32749;DHT22;19119;52.474;13.710;2023-05-07T11:10:00;16.40;99.90
32749;DHT22;19119;52.474;13.710;2023-05-07T11:15:06;16.80;99.90
32749;DHT22;19119;52.474;13.710;2023-05-07T11:17:32;16.50;99.90
32749;DHT22;19119;52.474;13.710;2023-05-07T11:20:01;16.00;99.90
32749;DHT22;19119;52.474;13.710;2023-05-07T11:25:01;15.70;99.90
32749;DHT22;19119;52.474;13.710;2023-05-07T11:27:28;15.70;99.90
32749;DHT22;19119;52.474;13.710;2023-05-07T11:29:54;15.80;99.90
32749;DHT22;19119;52.474;13.710;2023-05-07T11:32:24;15.70;99.90
32749;DHT22;19119;52.474;13.710;2023-05-07T11:34:56;15.80;99.90
32749;DHT22;19119;52.474;13.710;2023-05-07T11:37:23;16.30;99.90
32749;DHT22;19119;52.474;13.710;2023-05-07T11:39:49;16.10;99.90
32749;DHT22;19119;52.474;13.710;2023-05-07T11:42:30;16.20;99.90
32749;DHT22;19119;52.474;13.710;2023-05-07T11:44:57;16.10;99.90
32749;DHT22;19119;52.474;13.710;2023-05-07T11:47:22;15.90;99.90
32749;DHT22;19119;52.474;13.710;2023-05-07T11:49:50;15.90;99.90
32749;DHT22;19119;52.474;13.710;2023-05-07T11:52:17;16.20;99.90
32749;DHT22;19119;52.474;13.710;2023-05-07T11:54:57;16.60;99.90
32749;DHT22;19119;52.474;13.710;2023-05-07T11:57:24;17.40;99.90
32749;DHT22;19119;52.474;13.710;2023-05-07T11:59:59;17.40;99.90
32749;DHT22;19119;52.474;13.710;2023-05-07T12:02:28;17.80;99.90
32749;DHT22;19119;52.474;13.710;2023-05-07T12:04:54;18.10;99.90
32749;DHT22;19119;52.474;13.710;2023-05-07T12:07:24;18.20;99.90
32749;DHT22;19119;52.474;13.710;2023-05-07T12:09:50;18.20;99.90
32749;DHT22;19119;52.474;13.710;2023-05-07T12:12:15;18.40;99.90
32749;DHT22;19119;52.474;13.710;2023-05-07T12:14:43;18.10;99.90
32749;DHT22;19119;52.474;13.710;2023-05-07T12:17:13;18.00;99.90
32749;DHT22;19119;52.474;13.710;2023-05-07T12:19:40;18.40;99.90
32749;DHT22;19119;52.474;13.710;2023-05-07T12:22:10;18.50;99.90
32749;DHT22;19119;52.474;13.710;2023-05-07T12:27:09;17.60;99.90
32749;DHT22;19119;52.474;13.710;2023-05-07T12:29:34;17.80;99.90
32749;DHT22;19119;52.474;13.710;2023-05-07T12:32:00;18.20;99.90
32749;DHT22;19119;52.474;13.710;2023-05-07T12:34:25;18.20;99.90
32749;DHT22;19119;52.474;13.710;2023-05-07T12:36:51;18.70;99.90
32749;DHT22;19119;52.474;13.710;2023-05-07T12:39:17;18.80;99.90
32749;DHT22;19119;52.474;13.710;2023-05-07T12:41:57;18.90;99.80
32749;DHT22;19119;52.474;13.710;2023-05-07T12:44:46;19.20;99.90
32749;DHT22;19119;52.474;13.710;2023-05-07T12:47:12;19.40;99.90
32749;DHT22;19119;52.474;13.710;2023-05-07T12:49:38;18.50;99.90
32749;DHT22;19119;52.474;13.710;2023-05-07T12:52:05;18.00;99.90
32749;DHT22;19119;52.474;13.710;2023-05-07T12:54:32;17.40;99.90
32749;DHT22;19119;52.474;13.710;2023-05-07T12:57:06;17.00;99.90
32749;DHT22;19119;52.474;13.710;2023-05-07T13:01:58;17.00;99.90
32749;DHT22;19119;52.474;13.710;2023-05-07T13:04:24;17.30;99.90
32749;DHT22;19119;52.474;13.710;2023-05-07T13:06:50;17.40;99.90
32749;DHT22;19119;52.474;13.710;2023-05-07T13:09:15;17.40;99.90
32749;DHT22;19119;52.474;13.710;2023-05-07T13:11:41;17.50;99.90
32749;DHT22;19119;52.474;13.710;2023-05-07T13:14:07;17.70;99.90
32749;DHT22;19119;52.474;13.710;2023-05-07T13:16:33;18.00;99.90
32749;DHT22;19119;52.474;13.710;2023-05-07T13:18:58;18.00;99.90
32749;DHT22;19119;52.474;13.710;2023-05-07T13:21:24;17.80;99.90
32749;DHT22;19119;52.474;13.710;2023-05-07T13:23:50;17.00;99.90
32749;DHT22;19119;52.474;13.710;2023-05-07T13:26:15;17.00;99.90
32749;DHT22;19119;52.474;13.710;2023-05-07T13:28:41;17.00;99.90
32749;DHT22;19119;52.474;13.710;2023-05-07T13:31:07;17.30;99.90
32749;DHT22;19119;52.474;13.710;2023-05-07T13:33:33;17.80;99.90
32749;DHT22;19119;52.474;13.710;2023-05-07T13:35:58;17.90;99.90
32749;DHT22;19119;52.474;13.710;2023-05-07T13:38:25;17.60;99.90
32749;DHT22;19119;52.474;13.710;2023-05-07T13:40:51;17.40;99.90
32749;DHT22;19119;52.474;13.710;2023-05-07T13:43:17;16.80;99.90
32749;DHT22;19119;52.474;13.710;2023-05-07T13:45:44;16.50;99.90
32749;DHT22;19119;52.474;13.710;2023-05-07T13:48:09;16.40;99.90
32749;DHT22;19119;52.474;13.710;2023-05-07T13:50:35;16.50;99.90
32749;DHT22;19119;52.474;13.710;2023-05-07T13:53:00;17.10;99.90
32749;DHT22;19119;52.474;13.710;2023-05-07T13:55:29;17.50;99.90
32749;DHT22;19119;52.474;13.710;2023-05-07T13:57:59;17.70;99.60
32749;DHT22;19119;52.474;13.710;2023-05-07T14:00:26;18.10;99.90
32749;DHT22;19119;52.474;13.710;2023-05-07T14:02:52;18.50;99.90
32749;DHT22;19119;52.474;13.710;2023-05-07T14:05:18;18.60;99.90
32749;DHT22;19119;52.474;13.710;2023-05-07T14:07:44;19.00;99.90
32749;DHT22;19119;52.474;13.710;2023-05-07T14:10:10;19.20;99.30
32749;DHT22;19119;52.474;13.710;2023-05-07T14:12:36;19.20;99.60
32749;DHT22;19119;52.474;13.710;2023-05-07T14:15:02;19.30;99.70
32749;DHT22;19119;52.474;13.710;2023-05-07T14:17:27;19.20;99.90
32749;DHT22;19119;52.474;13.710;2023-05-07T14:19:53;18.90;99.90
32749;DHT22;19119;52.474;13.710;2023-05-07T14:22:21;18.60;99.90
32749;DHT22;19119;52.474;13.710;2023-05-07T14:24:47;18.30;99.90
32749;DHT22;19119;52.474;13.710;2023-05-07T14:27:13;17.90;99.90
32749;DHT22;19119;52.474;13.710;2023-05-07T14:29:38;17.80;99.90
32749;DHT22;19119;52.474;13.710;2023-05-07T14:32:04;17.60;99.90
32749;DHT22;19119;52.474;13.710;2023-05-07T14:34:31;17.50;99.90
32749;DHT22;19119;52.474;13.710;2023-05-07T14:36:56;17.30;99.90
32749;DHT22;19119;52.474;13.710;2023-05-07T14:39:22;17.70;99.90
32749;DHT22;19119;52.474;13.710;2023-05-07T14:41:47;17.70;99.90
32749;DHT22;19119;52.474;13.710;2023-05-07T14:44:13;17.70;99.90
32749;DHT22;19119;52.474;13.710;2023-05-07T14:46:38;17.60;99.90
32749;DHT22;19119;52.474;13.710;2023-05-07T14:49:04;17.50;99.90
32749;DHT22;19119;52.474;13.710;2023-05-07T14:51:30;17.90;99.90
32749;DHT22;19119;52.474;13.710;2023-05-07T14:53:55;17.90;99.90
32749;DHT22;19119;52.474;13.710;2023-05-07T14:56:21;17.30;99.90
32749;DHT22;19119;52.474;13.710;2023-05-07T14:58:47;17.00;99.90
32749;DHT22;19119;52.474;13.710;2023-05-07T15:01:14;16.90;99.90
32749;DHT22;19119;52.474;13.710;2023-05-07T15:03:39;16.80;99.90
32749;DHT22;19119;52.474;13.710;2023-05-07T15:06:05;16.50;99.90
32749;DHT22;19119;52.474;13.710;2023-05-07T15:08:31;16.20;99.90
32749;DHT22;19119;52.474;13.710;2023-05-07T15:10:56;16.10;99.90
32749;DHT22;19119;52.474;13.710;2023-05-07T15:13:22;16.40;99.90
32749;DHT22;19119;52.474;13.710;2023-05-07T15:15:47;16.80;99.90
32749;DHT22;19119;52.474;13.710;2023-05-07T15:18:14;17.40;99.90
32749;DHT22;19119;52.474;13.710;2023-05-07T15:20:41;17.70;99.90
32749;DHT22;19119;52.474;13.710;2023-05-07T15:23:07;18.10;99.80
32749;DHT22;19119;52.474;13.710;2023-05-07T15:25:37;17.90;99.90
32749;DHT22;19119;52.474;13.710;2023-05-07T15:28:03;17.30;99.80
32749;DHT22;19119;52.474;13.710;2023-05-07T15:30:29;16.80;99.90
32749;DHT22;19119;52.474;13.710;2023-05-07T15:32:55;16.80;99.90
32749;DHT22;19119;52.474;13.710;2023-05-07T15:35:21;16.80;99.90
32749;DHT22;19119;52.474;13.710;2023-05-07T15:37:48;16.70;99.90
32749;DHT22;19119;52.474;13.710;2023-05-07T15:40:15;16.50;99.90